VTCC

Chiang Mai International Airport

Chiang Mai, Thailand
TAF VTCC 212300Z 2200/2306 30005KT 9999 FEW035
Issued Valid From Valid To
Jan-21 @ 23:00 UTC
(2 hours ago)
Jan-22 @ 00:00 UTC
(40 minutes ago)
Jan-23 @ 06:00 UTC
(-1 days ago)
Jan-22 @ 00:00 to Jan-23 @ 06:00
TAF VTCC 212300Z 2200/2306 30005KT 9999 FEW035
Wind Visibility Clouds
300° at 5 knots 10,000+ meters
  • Few at 3,500' AGL
TAF VTCC 212300Z 2200/2306 30005KT 9999 FEW035
Issued Jan-21 @ 23:00 UTC
(2 hours ago)
Valid From Jan-22 @ 00:00 UTC
(40 minutes ago)
Valid To Jan-23 @ 06:00 UTC
(-1 days ago)
Jan-22 @ 00:00 - Jan-23 @ 06:00
Wind Visibility
300° at 5 knots 10,000+ meters
Clouds
  • Few at 3,500' AGL